Time;durP1;ratioP1;P1;durP2;ratioP2;P2;SDS_P1;SDS_P2;PMS_P1;PMS_P2;Temp;Humidity;BMP_temperature;BMP_pressure;BME280_temperature;BME280_humidity;BME280_pressure;Samples;Min_cycle;Max_cycle;Signal;HPM_P1;HPM_P2
2023/10/12 00:02:04;;;;;;;3.17;1.08;;;;;;;13.37;100.00;100155.00;5010544;28;20415;-93
2023/10/12 00:04:38;;;;;;;1.35;0.80;;;;;;;13.22;100.00;100155.34;5013540;28;20422;-92
2023/10/12 00:07:15;;;;;;;3.00;0.80;;;;;;;13.34;100.00;100191.13;5012534;28;20423;-93
2023/10/12 00:09:48;;;;;;;2.60;0.80;;;;;;;13.02;100.00;100176.56;5006531;28;20775;-92
2023/10/12 00:12:21;;;;;;;3.50;0.80;;;;;;;13.05;100.00;100177.84;5005182;28;20420;-92
2023/10/12 00:14:49;;;;;;;2.53;0.63;;;;;;;13.00;100.00;100167.88;5017535;28;20413;-89
2023/10/12 00:17:17;;;;;;;3.93;0.90;;;;;;;12.98;100.00;100166.56;5014469;28;20425;-91
2023/10/12 00:19:46;;;;;;;5.78;0.93;;;;;;;12.75;100.00;100172.00;5015591;28;20449;-91
2023/10/12 00:22:16;;;;;;;4.15;1.00;;;;;;;12.69;100.00;100175.94;5023255;28;20422;-91
2023/10/12 00:24:44;;;;;;;5.70;1.20;;;;;;;12.83;100.00;100201.31;5018834;28;20773;-90
2023/10/12 00:27:14;;;;;;;7.60;1.23;;;;;;;12.67;100.00;100192.63;5011644;28;20414;-91
2023/10/12 00:29:45;;;;;;;6.22;1.27;;;;;;;12.57;100.00;100192.84;5020129;28;20410;-92
2023/10/12 00:32:13;;;;;;;8.35;1.40;;;;;;;12.59;100.00;100207.81;5009028;28;20435;-91
2023/10/12 00:34:46;;;;;;;8.02;1.27;;;;;;;12.54;100.00;100187.97;5012930;28;20430;-94
2023/10/12 00:37:15;;;;;;;8.07;1.45;;;;;;;12.49;100.00;100186.19;5017319;28;20442;-92
2023/10/12 00:39:56;;;;;;;9.43;1.23;;;;;;;12.44;100.00;100183.53;5012560;28;20413;-93
2023/10/12 00:42:32;;;;;;;7.88;1.40;;;;;;;12.47;100.00;100168.47;5012846;28;20427;-92
2023/10/12 00:45:10;;;;;;;7.97;1.30;;;;;;;12.35;100.00;100167.09;5013402;28;20421;-93
2023/10/12 00:47:45;;;;;;;14.02;1.50;;;;;;;12.42;100.00;100169.41;5015742;28;20440;-93
2023/10/12 00:50:14;;;;;;;9.65;1.55;;;;;;;12.22;100.00;100152.34;5012025;28;20415;-93
2023/10/12 00:52:54;;;;;;;7.03;1.45;;;;;;;12.42;100.00;100166.69;5014103;28;20421;-94
2023/10/12 00:55:36;;;;;;;10.63;1.90;;;;;;;12.34;100.00;100153.75;5010886;28;20765;-95
2023/10/12 00:58:08;;;;;;;8.75;1.55;;;;;;;12.47;100.00;100160.28;5012315;28;20417;-94
2023/10/12 01:00:44;;;;;;;12.68;1.55;;;;;;;12.35;100.00;100169.03;5013904;28;20416;-93
2023/10/12 01:03:35;;;;;;;9.57;1.58;;;;;;;12.37;100.00;100177.69;5015605;28;20422;-92
2023/10/12 01:08:51;;;;;;;10.10;1.80;;;;;;;12.33;100.00;100165.78;5020211;28;20422;-92
2023/10/12 01:11:22;;;;;;;8.30;1.40;;;;;;;12.22;100.00;100174.19;5009767;28;20411;-92
2023/10/12 01:14:04;;;;;;;11.93;1.65;;;;;;;12.50;100.00;100209.63;5004281;28;20432;-91
2023/10/12 01:16:45;;;;;;;10.03;1.80;;;;;;;12.25;100.00;100200.84;5010987;28;20515;-93
2023/10/12 01:19:20;;;;;;;10.32;1.70;;;;;;;12.00;100.00;100202.16;5015237;28;21238;-93
2023/10/12 01:21:51;;;;;;;12.43;1.80;;;;;;;12.06;100.00;100203.66;5009955;28;20760;-93
2023/10/12 01:24:24;;;;;;;7.07;1.25;;;;;;;12.03;100.00;100214.38;5027491;28;20457;-92
2023/10/12 01:26:53;;;;;;;13.32;1.77;;;;;;;11.90;100.00;100189.47;5015379;28;20418;-93
2023/10/12 01:29:21;;;;;;;9.13;1.70;;;;;;;11.87;100.00;100206.41;5017238;28;20425;-92
2023/10/12 01:31:53;;;;;;;10.95;1.80;;;;;;;11.95;100.00;100223.25;5014875;28;20426;-92
2023/10/12 01:34:24;;;;;;;8.20;1.80;;;;;;;11.86;100.00;100218.44;5027978;28;20415;-93
2023/10/12 01:36:58;;;;;;;12.98;1.88;;;;;;;11.77;100.00;100219.44;5014766;28;20426;-94
2023/10/12 01:39:28;;;;;;;15.23;1.83;;;;;;;11.76;100.00;100210.44;5012789;28;20420;-92
2023/10/12 01:41:57;;;;;;;13.23;1.93;;;;;;;11.68;100.00;100186.59;5035882;28;20459;-92
2023/10/12 01:44:27;;;;;;;10.67;1.70;;;;;;;11.52;100.00;100196.97;5017286;28;20523;-95
2023/10/12 01:46:56;;;;;;;13.47;1.70;;;;;;;11.46;100.00;100184.50;5018012;28;20422;-93
2023/10/12 01:49:25;;;;;;;12.70;1.67;;;;;;;11.61;100.00;100202.53;5043079;28;20426;-93
2023/10/12 01:51:57;;;;;;;11.60;2.00;;;;;;;11.49;100.00;100192.09;5025198;28;20470;-94
2023/10/12 01:54:28;;;;;;;10.07;1.60;;;;;;;11.60;100.00;100217.25;5007980;28;20422;-94
2023/10/12 01:56:56;;;;;;;11.80;1.80;;;;;;;11.64;100.00;100235.47;5015501;28;20407;-93
2023/10/12 01:59:28;;;;;;;11.82;1.60;;;;;;;11.44;100.00;100194.91;5031383;28;20428;-93
2023/10/12 02:02:07;;;;;;;12.57;1.88;;;;;;;11.50;100.00;100205.44;5006446;28;20923;-93
2023/10/12 02:04:40;;;;;;;8.50;1.45;;;;;;;11.37;100.00;100196.09;5016109;28;20423;-94
2023/10/12 02:07:10;;;;;;;10.03;1.50;;;;;;;11.47;100.00;100210.66;5011681;28;20418;-92
2023/10/12 02:09:39;;;;;;;10.60;1.73;;;;;;;11.39;100.00;100201.22;5031737;28;20430;-93
2023/10/12 02:12:12;;;;;;;16.88;1.98;;;;;;;11.50;100.00;100224.50;5010525;28;20436;-92
2023/10/12 02:14:41;;;;;;;9.70;1.50;;;;;;;11.48;100.00;100228.63;5030974;28;20447;-95
2023/10/12 02:17:10;;;;;;;11.43;1.60;;;;;;;11.51;100.00;100228.03;5041370;28;20422;-94
2023/10/12 02:19:41;;;;;;;10.77;1.83;;;;;;;11.47;100.00;100229.72;5021095;28;20415;-93
2023/10/12 02:22:20;;;;;;;14.20;2.15;;;;;;;11.53;100.00;100237.53;5011087;28;20430;-94
2023/10/12 02:24:57;;;;;;;13.13;1.77;;;;;;;11.47;100.00;100237.91;5030014;28;20426;-93
2023/10/12 02:27:28;;;;;;;11.68;2.08;;;;;;;11.49;100.00;100249.31;5005816;28;20425;-94
2023/10/12 02:29:57;;;;;;;9.35;1.52;;;;;;;11.45;100.00;100240.09;5020682;28;20423;-95
2023/10/12 02:32:28;;;;;;;9.35;1.80;;;;;;;11.30;100.00;100231.06;5016837;28;20414;-94
2023/10/12 02:34:59;;;;;;;10.07;1.83;;;;;;;11.48;100.00;100269.50;5033947;28;20438;-94
2023/10/12 02:37:29;;;;;;;15.47;1.70;;;;;;;11.28;100.00;100244.16;5013019;28;20419;-93
2023/10/12 02:39:58;;;;;;;11.32;1.70;;;;;;;11.34;100.00;100258.53;5018089;28;20418;-94
2023/10/12 02:42:40;;;;;;;15.65;1.80;;;;;;;11.31;100.00;100251.78;5037115;28;20437;-95
2023/10/12 02:45:17;;;;;;;11.27;2.28;;;;;;;11.31;100.00;100256.38;5040095;28;20410;-94
2023/10/12 02:47:46;;;;;;;13.73;1.98;;;;;;;11.43;100.00;100275.03;5044028;23;20435;-88
2023/10/12 02:50:37;;;;;;;9.77;1.63;;;;;;;11.37;100.00;100272.38;5037801;28;20431;-87
2023/10/12 02:53:12;;;;;;;17.55;1.75;;;;;;;11.27;100.00;100279.88;5047135;28;20417;-88
2023/10/12 02:55:49;;;;;;;12.13;1.85;;;;;;;11.29;100.00;100280.41;5037309;28;20888;-86
2023/10/12 02:58:20;;;;;;;13.35;1.70;;;;;;;11.31;100.00;100272.72;5050778;28;20413;-87
2023/10/12 03:00:56;;;;;;;10.55;1.80;;;;;;;11.27;100.00;100268.97;5041839;28;20427;-87
2023/10/12 03:03:36;;;;;;;10.40;1.90;;;;;;;11.19;100.00;100278.63;5032524;28;20423;-87
2023/10/12 03:06:08;;;;;;;12.13;2.05;;;;;;;11.19;100.00;100284.88;5027443;28;20423;-86
2023/10/12 03:09:02;;;;;;;14.48;1.90;;;;;;;11.15;100.00;100283.84;5027486;28;20427;-87
2023/10/12 03:11:35;;;;;;;11.45;1.95;;;;;;;11.14;100.00;100297.75;5040853;28;20424;-87
2023/10/12 03:14:15;;;;;;;10.85;2.10;;;;;;;11.20;100.00;100294.69;5025136;28;21230;-88
2023/10/12 03:16:50;;;;;;;9.27;1.67;;;;;;;11.15;100.00;100304.84;5028666;28;20424;-87
2023/10/12 03:19:22;;;;;;;13.37;1.90;;;;;;;11.18;100.00;100299.59;5029196;28;21068;-88
2023/10/12 03:21:51;;;;;;;13.57;2.07;;;;;;;11.11;100.00;100292.91;5020921;28;20467;-87
2023/10/12 03:24:38;;;;;;;13.15;2.00;;;;;;;11.17;100.00;100291.72;5026007;28;20427;-87
2023/10/12 03:27:11;;;;;;;12.85;2.00;;;;;;;11.09;100.00;100300.53;5027585;28;20406;-87
2023/10/12 03:29:50;;;;;;;14.55;1.80;;;;;;;10.98;100.00;100295.25;5025157;28;21115;-86
2023/10/12 03:32:25;;;;;;;10.57;1.95;;;;;;;11.00;100.00;100300.41;5029534;28;20421;-88
2023/10/12 03:34:58;;;;;;;14.20;1.85;;;;;;;11.06;100.00;100296.50;5028442;28;20899;-88
2023/10/12 03:37:47;;;;;;;13.73;2.10;;;;;;;11.07;100.00;100298.13;5022356;28;20423;-87
2023/10/12 03:43:19;;;;;;;14.10;1.83;;;;;;;10.93;100.00;100297.22;5006800;28;20425;-86
2023/10/12 03:46:00;;;;;;;12.35;1.70;;;;;;;10.94;100.00;100310.53;5023629;28;20779;-86
2023/10/12 03:49:03;;;;;;;13.73;1.80;;;;;;;10.93;100.00;100305.41;5025045;28;20429;-87
2023/10/12 03:51:40;;;;;;;9.82;1.65;;;;;;;10.98;100.00;100295.25;5043311;28;20430;-87
2023/10/12 03:54:26;;;;;;;12.43;2.03;;;;;;;10.89;100.00;100291.53;5027226;28;20415;-86
2023/10/12 03:57:07;;;;;;;9.23;1.85;;;;;;;10.87;100.00;100294.56;5022993;28;20419;-87
2023/10/12 03:59:44;;;;;;;13.15;1.80;;;;;;;10.94;100.00;100293.38;5027658;28;20411;-86
2023/10/12 04:02:17;;;;;;;11.45;1.70;;;;;;;10.88;100.00;100290.75;5024852;28;20439;-87
2023/10/12 04:04:59;;;;;;;14.38;2.40;;;;;;;10.88;100.00;100289.91;5029140;28;20431;-87
2023/10/12 04:07:46;;;;;;;11.32;1.88;;;;;;;10.91;100.00;100299.41;5025466;28;20438;-87
2023/10/12 04:11:06;;;;;;;16.50;2.25;;;;;;;10.86;100.00;100295.66;5034873;28;20425;-86
2023/10/12 04:16:09;;;;;;;14.75;2.10;;;;;;;10.67;100.00;100298.31;5024311;28;20919;-86
2023/10/12 04:18:41;;;;;;;9.33;1.67;;;;;;;10.80;100.00;100307.72;5024755;28;20778;-87
2023/10/12 04:21:17;;;;;;;14.73;1.87;;;;;;;10.75;100.00;100318.66;5022841;28;20424;-87
2023/10/12 04:24:27;;;;;;;11.33;1.80;;;;;;;10.81;100.00;100317.50;5024599;28;20430;-87
2023/10/12 04:26:39;;;;;;;14.20;2.00;;;;;;;10.81;100.00;100312.06;5023323;28;20422;-87
2023/10/12 04:29:08;;;;;;;13.65;2.10;;;;;;;10.87;100.00;100320.97;5026828;28;20888;-87
2023/10/12 04:31:50;;;;;;;14.63;2.20;;;;;;;10.71;100.00;100334.75;5025754;28;20431;-86
2023/10/12 04:34:26;;;;;;;14.93;2.20;;;;;;;10.75;100.00;100345.06;5025131;28;20429;-87
2023/10/12 04:37:07;;;;;;;16.33;2.27;;;;;;;10.72;100.00;100336.38;5023383;28;20997;-86
2023/10/12 04:39:37;;;;;;;9.10;2.00;;;;;;;10.84;100.00;100351.47;5033063;28;20426;-87
2023/10/12 04:42:12;;;;;;;13.15;2.45;;;;;;;10.83;100.00;100355.34;5040206;28;20433;-88
2023/10/12 04:44:43;;;;;;;13.47;2.27;;;;;;;10.81;100.00;100358.34;5024656;28;20776;-87
2023/10/12 04:47:13;;;;;;;17.60;2.70;;;;;;;10.84;100.00;100360.47;5024314;28;20433;-86
2023/10/12 04:49:57;;;;;;;15.38;2.50;;;;;;;10.77;100.00;100362.75;5020723;28;20433;-87
2023/10/12 04:52:40;;;;;;;14.50;2.55;;;;;;;10.81;100.00;100362.97;5024387;28;20430;-86
2023/10/12 04:55:20;;;;;;;15.15;2.60;;;;;;;10.94;100.00;100370.44;5028177;28;21087;-86
2023/10/12 04:58:16;;;;;;;12.90;2.70;;;;;;;10.84;100.00;100371.38;5027433;28;20435;-87
2023/10/12 05:00:54;;;;;;;16.25;2.53;;;;;;;10.68;100.00;100376.16;5024379;28;20414;-86
2023/10/12 05:03:34;;;;;;;15.25;2.58;;;;;;;10.75;100.00;100383.19;5031928;28;20445;-86
2023/10/12 05:06:08;;;;;;;16.70;2.78;;;;;;;10.75;100.00;100388.63;5021177;28;20441;-87
2023/10/12 05:08:42;;;;;;;15.33;2.57;;;;;;;10.79;100.00;100392.41;5027611;28;20436;-86
2023/10/12 05:11:15;;;;;;;15.15;2.53;;;;;;;10.85;100.00;100393.94;5033122;28;20489;-86
2023/10/12 05:13:44;;;;;;;16.05;2.47;;;;;;;10.82;100.00;100394.53;5024312;28;20432;-86
2023/10/12 05:16:16;;;;;;;15.65;2.45;;;;;;;10.83;100.00;100394.25;5027464;28;20423;-86
2023/10/12 05:18:49;;;;;;;14.60;2.40;;;;;;;10.91;100.00;100406.41;5023830;28;20421;-86
2023/10/12 05:21:22;;;;;;;15.43;2.83;;;;;;;10.85;100.00;100407.56;5024177;28;20429;-87
2023/10/12 05:23:51;;;;;;;15.88;2.55;;;;;;;10.88;100.00;100407.81;5025042;28;20918;-86
2023/10/12 05:26:26;;;;;;;22.53;2.90;;;;;;;10.88;100.00;100410.53;5032687;28;20426;-87
2023/10/12 05:29:18;;;;;;;12.68;2.25;;;;;;;10.86;100.00;100411.91;5026648;28;20418;-86
2023/10/12 05:32:05;;;;;;;15.57;2.83;;;;;;;10.87;100.00;100425.22;5024174;28;20430;-86
2023/10/12 05:34:52;;;;;;;17.33;2.83;;;;;;;10.85;100.00;100435.63;5030500;28;20431;-86
2023/10/12 05:37:37;;;;;;;18.02;2.65;;;;;;;10.85;100.00;100435.63;5021003;28;20429;-86
2023/10/12 05:40:13;;;;;;;16.02;3.00;;;;;;;10.93;100.00;100434.16;5032569;28;20748;-86
2023/10/12 05:42:50;;;;;;;19.58;3.00;;;;;;;10.85;100.00;100448.41;5035053;28;20810;-86
2023/10/12 05:45:21;;;;;;;16.45;2.60;;;;;;;10.88;100.00;100450.53;5029618;28;20404;-86
2023/10/12 05:47:52;;;;;;;12.93;2.38;;;;;;;10.95;100.00;100452.91;5028140;28;20426;-86
2023/10/12 05:50:23;;;;;;;13.82;2.40;;;;;;;10.88;100.00;100450.53;5036018;28;20772;-85
2023/10/12 05:52:59;;;;;;;18.42;2.85;;;;;;;10.95;100.00;100451.03;5029995;28;20415;-85
2023/10/12 05:55:28;;;;;;;16.65;2.80;;;;;;;10.97;100.00;100454.25;5033040;28;20411;-85
2023/10/12 05:58:11;;;;;;;15.38;2.83;;;;;;;10.92;100.00;100457.03;5021097;28;20438;-86
2023/10/12 06:00:45;;;;;;;14.75;2.53;;;;;;;10.91;100.00;100463.59;5026794;28;20427;-85
2023/10/12 06:03:21;;;;;;;11.57;2.42;;;;;;;10.95;100.00;100466.53;5019756;28;20419;-85
2023/10/12 06:05:50;;;;;;;16.95;2.67;;;;;;;10.93;100.00;100464.09;5024013;28;20423;-85
2023/10/12 06:08:24;;;;;;;17.35;2.60;;;;;;;10.89;100.00;100476.66;5028323;28;20427;-91
2023/10/12 06:10:55;;;;;;;17.45;2.47;;;;;;;10.93;100.00;100472.28;5027657;28;20980;-93
2023/10/12 06:13:31;;;;;;;19.17;2.67;;;;;;;10.90;100.00;100475.56;5036436;28;20459;-87
2023/10/12 06:16:01;;;;;;;14.70;2.60;;;;;;;10.93;100.00;100477.72;5032617;28;20440;-92
2023/10/12 06:18:37;;;;;;;13.20;2.70;;;;;;;10.89;100.00;100479.38;5031499;28;20424;-91
2023/10/12 06:21:07;;;;;;;16.77;2.60;;;;;;;10.84;100.00;100476.72;5044125;28;20911;-89
2023/10/12 06:23:43;;;;;;;12.03;2.37;;;;;;;10.84;100.00;100476.72;5029845;28;20434;-92
2023/10/12 06:26:28;;;;;;;15.25;2.30;;;;;;;10.85;100.00;100489.22;5012332;28;20430;-91
2023/10/12 06:28:59;;;;;;;15.30;2.40;;;;;;;10.94;100.00;100500.31;5027615;28;20420;-89
2023/10/12 06:31:29;;;;;;;14.15;2.17;;;;;;;10.93;100.00;100495.97;5028166;28;20424;-91
2023/10/12 06:34:11;;;;;;;12.57;2.05;;;;;;;10.89;100.00;100501.16;5024215;28;20428;-92
2023/10/12 06:36:43;;;;;;;14.00;2.75;;;;;;;10.92;100.00;100497.88;5046558;28;20435;-89
2023/10/12 06:42:24;;;;;;;19.10;2.90;;;;;;;10.98;100.00;100514.97;5026694;28;20909;-92
2023/10/12 06:44:52;;;;;;;9.80;2.22;;;;;;;10.99;100.00;100528.31;5032394;28;20427;-90
2023/10/12 06:47:41;;;;;;;23.02;5.35;;;;;;;10.97;100.00;100526.97;5028515;28;20438;-92
2023/10/12 06:50:18;;;;;;;16.73;2.40;;;;;;;11.03;100.00;100534.81;5040977;28;20940;-93
2023/10/12 06:52:47;;;;;;;13.65;2.30;;;;;;;10.98;100.00;100544.91;5027184;28;20428;-93
2023/10/12 06:55:28;;;;;;;13.50;2.50;;;;;;;11.00;100.00;100542.75;5031928;28;20427;-92
2023/10/12 06:57:56;;;;;;;15.18;2.30;;;;;;;11.02;100.00;100556.88;5031586;28;20777;-92
2023/10/12 07:00:34;;;;;;;12.98;2.50;;;;;;;10.99;100.00;100560.16;5055612;23;20423;-92
2023/10/12 07:03:08;;;;;;;14.15;2.53;;;;;;;10.96;100.00;100563.47;5000847;28;20899;-92
2023/10/12 07:05:38;;;;;;;15.23;2.53;;;;;;;10.99;100.00;100543.81;5010408;28;20432;-96
2023/10/12 07:08:15;;;;;;;17.70;2.40;;;;;;;11.09;100.00;100557.38;5006102;28;20421;-92
2023/10/12 07:10:58;;;;;;;10.30;1.90;;;;;;;11.12;100.00;100570.41;5012079;28;20421;-93
2023/10/12 07:13:27;;;;;;;11.18;2.22;;;;;;;11.16;100.00;100559.75;5010225;28;20424;-95
2023/10/12 07:15:57;;;;;;;15.73;2.42;;;;;;;11.06;100.00;100560.63;5015355;28;20440;-93
2023/10/12 07:18:26;;;;;;;13.20;2.50;;;;;;;11.14;100.00;100572.84;5013249;28;20417;-93
2023/10/12 07:20:56;;;;;;;13.55;2.17;;;;;;;11.06;100.00;100566.09;5016574;28;20431;-93
2023/10/12 07:23:34;;;;;;;10.50;2.20;;;;;;;11.21;100.00;100576.03;4995779;28;20776;-94
2023/10/12 07:26:12;;;;;;;17.52;2.70;;;;;;;11.16;100.00;100565.22;5011697;28;20412;-94
2023/10/12 07:28:41;;;;;;;17.45;2.38;;;;;;;11.17;100.00;100578.53;5002804;28;20422;-94
2023/10/12 07:31:38;;;;;;;14.02;2.50;;;;;;;11.19;100.00;100581.78;5009220;28;20440;-93
2023/10/12 07:34:13;;;;;;;12.77;2.90;;;;;;;11.18;100.00;100576.63;5011597;28;20430;-94
2023/10/12 07:36:53;;;;;;;13.17;2.27;;;;;;;11.20;100.00;100575.22;5008926;28;20430;-92
2023/10/12 07:39:24;;;;;;;21.67;2.53;;;;;;;11.31;100.00;100586.03;5007386;28;20436;-93
2023/10/12 07:42:00;;;;;;;20.97;2.70;;;;;;;11.14;100.00;100568.19;5010246;28;20436;-92
2023/10/12 07:44:37;;;;;;;10.90;2.23;;;;;;;11.26;100.00;100595.06;4998842;28;20422;-93
2023/10/12 07:47:14;;;;;;;11.60;2.10;;;;;;;11.26;100.00;100591.53;5004855;28;20424;-93
2023/10/12 07:49:48;;;;;;;14.48;2.38;;;;;;;11.24;100.00;100605.41;5003784;28;20434;-91
2023/10/12 07:52:38;;;;;;;16.40;2.40;;;;;;;11.12;100.00;100581.31;5002636;28;20451;-93
2023/10/12 07:55:14;;;;;;;16.10;2.45;;;;;;;11.21;100.00;100585.03;5003617;28;20417;-93
2023/10/12 07:57:47;;;;;;;13.77;2.03;;;;;;;11.20;100.00;100566.25;5000629;28;20433;-93
2023/10/12 08:00:34;;;;;;;15.20;2.55;;;;;;;11.32;100.00;100593.09;4989261;28;20426;-92
2023/10/12 08:10:15;;;;;;;14.80;2.22;;;;;;;11.37;100.00;100572.06;4942673;28;20788;-92
2023/10/12 08:13:48;;;;;;;11.63;2.30;;;;;;;11.72;100.00;100600.06;4970311;28;20513;-89
2023/10/12 08:17:00;;;;;;;16.40;2.35;;;;;;;11.73;100.00;100607.13;4987171;28;20503;-91
2023/10/12 08:20:01;;;;;;;14.55;2.40;;;;;;;11.81;100.00;100602.97;4979277;28;20444;-91
2023/10/12 08:25:57;;;;;;;14.07;2.75;;;;;;;11.77;100.00;100626.44;4956678;28;20448;-90
2023/10/12 08:28:37;;;;;;;10.00;2.17;;;;;;;11.95;100.00;100630.38;4958530;28;20443;-90
2023/10/12 08:31:05;;;;;;;13.80;2.53;;;;;;;11.78;100.00;100627.25;4965742;28;20437;-89
2023/10/12 08:36:29;;;;;;;12.85;2.20;;;;;;;11.72;100.00;100623.78;4967324;28;20460;-90
2023/10/12 08:38:57;;;;;;;12.63;2.70;;;;;;;11.71;100.00;100630.31;4950438;28;20439;-89
2023/10/12 08:41:57;;;;;;;15.00;2.20;;;;;;;11.69;100.00;100616.97;4956614;28;20444;-90
2023/10/12 08:44:22;;;;;;;15.30;2.92;;;;;;;11.73;100.00;100634.38;4972578;28;20882;-91
2023/10/12 08:46:59;;;;;;;13.15;2.40;;;;;;;11.62;100.00;100629.34;4963563;28;20460;-90
2023/10/12 08:49:43;;;;;;;13.88;2.60;;;;;;;11.91;100.00;100665.56;4950212;28;20451;-89
2023/10/12 08:52:19;;;;;;;14.90;2.10;;;;;;;12.12;100.00;100659.91;4974853;28;21903;-90
2023/10/12 08:54:52;;;;;;;14.00;2.70;;;;;;;12.21;100.00;100673.72;4975228;28;20429;-89
2023/10/12 08:57:35;;;;;;;11.48;2.05;;;;;;;12.21;100.00;100671.00;4977126;28;20433;-90
2023/10/12 09:00:24;;;;;;;15.43;2.25;;;;;;;12.18;100.00;100666.09;4976247;28;21288;-89
2023/10/12 09:02:58;;;;;;;10.57;2.30;;;;;;;12.32;100.00;100677.13;4967756;28;20905;-90
2023/10/12 09:05:29;;;;;;;9.27;1.90;;;;;;;12.31;100.00;100681.78;4971732;28;20444;-89
2023/10/12 09:08:39;;;;;;;13.35;2.20;;;;;;;12.23;100.00;100674.25;4971745;28;20487;-89
2023/10/12 09:11:02;;;;;;;11.60;2.25;;;;;;;12.22;100.00;100675.34;4973835;28;20417;-90
2023/10/12 09:13:33;;;;;;;10.95;1.92;;;;;;;12.30;100.00;100685.63;4967835;28;20444;-90
2023/10/12 09:16:11;;;;;;;10.93;1.77;;;;;;;12.51;100.00;100690.81;4950987;28;20428;-90
2023/10/12 09:18:44;;;;;;;14.57;2.00;;;;;;;12.37;100.00;100693.44;4957172;28;20440;-90
2023/10/12 09:21:28;;;;;;;9.70;1.88;;;;;;;12.41;100.00;100699.94;4960978;28;20429;-90
2023/10/12 09:24:05;;;;;;;9.90;1.88;;;;;;;12.16;100.00;100681.97;4964400;28;20811;-88
2023/10/12 09:26:37;;;;;;;11.13;1.67;;;;;;;12.23;100.00;100683.22;4958998;28;20913;-88
2023/10/12 09:29:20;;;;;;;10.88;2.05;;;;;;;12.17;100.00;100681.69;4949810;28;20443;-90
2023/10/12 09:32:13;;;;;;;13.53;2.00;;;;;;;12.25;100.00;100682.97;4951017;28;20498;-90
2023/10/12 09:34:43;;;;;;;14.40;2.10;;;;;;;12.31;100.00;100700.88;4980203;28;21006;-89
2023/10/12 09:37:18;;;;;;;14.37;1.90;;;;;;;12.35;100.00;100687.47;4978443;28;20444;-89
2023/10/12 09:39:48;;;;;;;11.45;2.00;;;;;;;12.50;100.00;100700.13;4962827;28;20962;-91
2023/10/12 09:42:30;;;;;;;12.85;2.53;;;;;;;12.43;100.00;100711.41;4957601;28;20441;-90
2023/10/12 09:45:07;;;;;;;11.73;2.08;;;;;;;12.49;100.00;100715.69;4970874;28;20626;-90
2023/10/12 09:47:50;;;;;;;11.53;1.80;;;;;;;12.23;100.00;100688.69;4976815;28;20448;-92
2023/10/12 09:50:27;;;;;;;11.23;1.90;;;;;;;12.34;100.00;100707.69;4977062;28;20437;-92
2023/10/12 09:53:12;;;;;;;12.75;1.80;;;;;;;12.38;100.00;100715.00;4975748;28;20444;-91
2023/10/12 09:56:02;;;;;;;12.07;1.90;;;;;;;12.41;100.00;100719.88;4963998;28;20425;-91
2023/10/12 09:58:34;;;;;;;9.45;1.98;;;;;;;12.31;100.00;100711.00;4959663;28;20447;-92
2023/10/12 10:01:07;;;;;;;11.37;1.90;;;;;;;12.42;100.00;100712.50;4967072;28;20445;-90
2023/10/12 10:03:47;;;;;;;10.68;1.90;;;;;;;12.33;100.00;100716.97;4966885;28;20432;-92
2023/10/12 10:06:28;;;;;;;13.20;2.10;;;;;;;12.32;100.00;100723.53;4973538;28;20441;-91
2023/10/12 10:11:57;;;;;;;13.50;2.00;;;;;;;12.36;100.00;100700.84;4968555;28;20437;-91
2023/10/12 10:14:34;;;;;;;11.77;1.85;;;;;;;12.48;100.00;100727.69;4984615;28;20589;-92
2023/10/12 10:17:10;;;;;;;17.60;1.90;;;;;;;12.56;100.00;100737.16;4964341;28;20432;-90
2023/10/12 10:19:44;;;;;;;11.15;1.90;;;;;;;12.58;100.00;100729.50;4973869;28;20437;-90
2023/10/12 10:22:14;;;;;;;14.57;2.20;;;;;;;12.54;100.00;100728.44;4951447;28;20514;-92
2023/10/12 10:24:49;;;;;;;10.07;1.70;;;;;;;12.55;100.00;100736.38;4981205;28;20424;-91
2023/10/12 10:27:19;;;;;;;18.85;4.72;;;;;;;12.61;100.00;100734.38;4972409;28;20440;-91
2023/10/12 10:29:54;;;;;;;16.35;1.90;;;;;;;12.54;100.00;100722.97;4951158;28;20440;-91
2023/10/12 10:32:31;;;;;;;11.65;1.58;;;;;;;12.54;100.00;100732.00;4971813;28;20929;-92
2023/10/12 10:35:12;;;;;;;14.70;2.10;;;;;;;12.62;100.00;100732.47;4943292;28;20428;-92
2023/10/12 10:37:57;;;;;;;10.90;1.85;;;;;;;12.64;100.00;100711.16;4966605;28;20440;-93
2023/10/12 10:40:43;;;;;;;16.03;2.20;;;;;;;12.61;100.00;100714.44;4942464;28;20915;-92
2023/10/12 10:43:15;;;;;;;12.60;1.85;;;;;;;12.74;100.00;100743.78;4949919;28;20921;-92
2023/10/12 10:45:56;;;;;;;11.18;1.70;;;;;;;12.70;100.00;100718.16;4949803;28;20950;-91
2023/10/12 10:48:27;;;;;;;13.20;1.85;;;;;;;12.89;100.00;100742.75;4966681;28;20789;-92
2023/10/12 10:51:02;;;;;;;14.82;2.03;;;;;;;12.86;100.00;100724.25;4967323;28;20790;-91
2023/10/12 10:53:36;;;;;;;12.57;2.05;;;;;;;12.87;100.00;100723.94;4976321;28;20432;-92
2023/10/12 10:56:13;;;;;;;11.70;1.60;;;;;;;12.78;100.00;100713.97;4980779;28;20440;-93
2023/10/12 10:58:45;;;;;;;8.77;1.40;;;;;;;12.84;100.00;100718.25;4956830;28;20433;-91
2023/10/12 11:01:20;;;;;;;8.30;1.73;;;;;;;12.99;100.00;100731.69;4965802;28;20425;-91
2023/10/12 11:03:49;;;;;;;12.95;2.10;;;;;;;12.97;100.00;100722.16;4966006;28;21101;-91
2023/10/12 11:06:22;;;;;;;10.55;1.67;;;;;;;12.98;100.00;100726.50;4953750;28;20429;-91
2023/10/12 11:09:05;;;;;;;10.70;1.60;;;;;;;13.01;100.00;100725.91;4965307;28;20790;-91
2023/10/12 11:11:44;;;;;;;11.98;1.77;;;;;;;13.13;100.00;100723.56;4958700;28;20448;-90
2023/10/12 11:14:14;;;;;;;9.30;1.50;;;;;;;13.10;100.00;100732.34;4963025;28;20443;-89
2023/10/12 11:16:46;;;;;;;10.23;2.10;;;;;;;13.19;100.00;100722.38;4950691;28;20436;-93
2023/10/12 11:19:18;;;;;;;13.68;1.48;;;;;;;13.27;100.00;100731.81;4962602;28;20514;-91
2023/10/12 11:21:51;;;;;;;14.98;1.90;;;;;;;13.15;100.00;100709.63;4952650;28;20443;-91
2023/10/12 11:24:24;;;;;;;9.55;1.50;;;;;;;13.32;100.00;100718.09;4967658;28;20455;-92
2023/10/12 11:26:55;;;;;;;10.25;1.70;;;;;;;13.38;100.00;100716.94;4962047;28;21848;-92
2023/10/12 11:29:25;;;;;;;9.35;1.60;;;;;;;13.49;100.00;100730.44;4967437;28;21331;-91
2023/10/12 11:32:11;;;;;;;8.53;1.50;;;;;;;13.39;100.00;100720.47;4961982;28;20990;-91
2023/10/12 11:34:45;;;;;;;11.50;1.85;;;;;;;13.27;100.00;100713.53;4968078;28;20487;-92
2023/10/12 11:37:18;;;;;;;14.23;1.70;;;;;;;13.07;100.00;100683.78;4963419;28;20608;-90
2023/10/12 11:39:49;;;;;;;12.00;1.65;;;;;;;13.11;100.00;100720.31;4976419;28;20440;-90
2023/10/12 11:42:17;;;;;;;9.57;1.53;;;;;;;13.03;100.00;100708.13;4975292;28;20436;-92
2023/10/12 11:44:48;;;;;;;10.60;1.50;;;;;;;13.17;100.00;100718.31;4956535;28;20590;-92
2023/10/12 11:47:37;;;;;;;14.13;1.80;;;;;;;13.33;100.00;100710.72;4949202;28;20441;-92
2023/10/12 11:50:09;;;;;;;8.80;1.50;;;;;;;13.40;100.00;100722.91;4965844;28;20978;-90
2023/10/12 11:52:40;;;;;;;11.38;1.85;;;;;;;13.31;100.00;100713.72;4967841;28;20463;-89
2023/10/12 11:55:19;;;;;;;11.00;1.60;;;;;;;13.29;100.00;100710.47;4978389;28;20470;-92
2023/10/12 11:57:53;;;;;;;11.70;1.65;;;;;;;13.43;100.00;100732.44;4951479;28;20448;-91
2023/10/12 12:00:29;;;;;;;10.77;1.80;;;;;;;13.31;100.00;100712.91;4950128;28;20429;-93
2023/10/12 12:03:02;;;;;;;9.10;1.40;;;;;;;13.28;100.00;100700.66;4973616;28;20905;-90
2023/10/12 12:05:33;;;;;;;20.27;7.87;;;;;;;13.37;100.00;100715.31;4965388;28;20530;-90
2023/10/12 12:08:06;;;;;;;10.20;1.75;;;;;;;13.38;100.00;100727.03;4977954;28;20451;-88
2023/10/12 12:10:44;;;;;;;12.13;1.63;;;;;;;13.32;100.00;100729.00;4967428;28;20432;-90
2023/10/12 12:13:15;;;;;;;10.48;1.83;;;;;;;13.29;100.00;100723.34;4976556;28;20432;-89
2023/10/12 12:15:45;;;;;;;9.23;1.40;;;;;;;13.22;100.00;100702.66;4961117;28;20788;-91
2023/10/12 12:18:20;;;;;;;11.85;1.67;;;;;;;13.48;100.00;100726.91;4970548;28;20432;-90
2023/10/12 12:21:03;;;;;;;13.57;1.80;;;;;;;13.44;100.00;100725.88;4980463;28;20432;-91